sensor_id;sensor_type;location;lat;lon;timestamp;P1;durP1;ratioP1;P2;durP2;ratioP2
17345;SDS011;8790;53.590;10.002;2024-01-06T00:01:02;3.93;;;2.70;;
17345;SDS011;8790;53.590;10.002;2024-01-06T00:03:35;5.33;;;3.27;;
17345;SDS011;8790;53.590;10.002;2024-01-06T00:06:06;5.20;;;3.80;;
17345;SDS011;8790;53.590;10.002;2024-01-06T00:08:38;5.70;;;3.97;;
17345;SDS011;8790;53.590;10.002;2024-01-06T00:11:09;6.10;;;3.60;;
17345;SDS011;8790;53.590;10.002;2024-01-06T00:13:41;4.83;;;3.67;;
17345;SDS011;8790;53.590;10.002;2024-01-06T00:16:13;5.50;;;3.40;;
17345;SDS011;8790;53.590;10.002;2024-01-06T00:18:47;5.27;;;3.73;;
17345;SDS011;8790;53.590;10.002;2024-01-06T00:21:19;6.50;;;3.90;;
17345;SDS011;8790;53.590;10.002;2024-01-06T00:23:50;5.03;;;3.30;;
17345;SDS011;8790;53.590;10.002;2024-01-06T00:26:21;5.77;;;3.77;;
17345;SDS011;8790;53.590;10.002;2024-01-06T00:28:53;5.23;;;3.50;;
17345;SDS011;8790;53.590;10.002;2024-01-06T00:31:26;5.43;;;3.70;;
17345;SDS011;8790;53.590;10.002;2024-01-06T00:33:57;4.27;;;3.40;;
17345;SDS011;8790;53.590;10.002;2024-01-06T00:36:29;5.53;;;3.97;;
17345;SDS011;8790;53.590;10.002;2024-01-06T00:39:00;5.43;;;4.03;;
17345;SDS011;8790;53.590;10.002;2024-01-06T00:41:33;7.33;;;4.10;;
17345;SDS011;8790;53.590;10.002;2024-01-06T00:44:05;5.73;;;3.70;;
17345;SDS011;8790;53.590;10.002;2024-01-06T00:46:38;5.03;;;3.23;;
17345;SDS011;8790;53.590;10.002;2024-01-06T00:49:10;6.03;;;3.70;;
17345;SDS011;8790;53.590;10.002;2024-01-06T00:51:41;6.10;;;3.60;;
17345;SDS011;8790;53.590;10.002;2024-01-06T00:54:13;5.80;;;3.87;;
17345;SDS011;8790;53.590;10.002;2024-01-06T00:56:44;5.70;;;3.87;;
17345;SDS011;8790;53.590;10.002;2024-01-06T00:59:16;4.80;;;3.60;;
17345;SDS011;8790;53.590;10.002;2024-01-06T01:01:48;5.40;;;3.97;;
17345;SDS011;8790;53.590;10.002;2024-01-06T01:04:20;5.53;;;3.83;;
17345;SDS011;8790;53.590;10.002;2024-01-06T01:06:51;6.13;;;4.33;;
17345;SDS011;8790;53.590;10.002;2024-01-06T01:09:23;6.27;;;3.90;;
17345;SDS011;8790;53.590;10.002;2024-01-06T01:11:54;6.00;;;4.03;;
17345;SDS011;8790;53.590;10.002;2024-01-06T01:14:25;6.83;;;4.43;;
17345;SDS011;8790;53.590;10.002;2024-01-06T01:16:58;5.77;;;4.00;;
17345;SDS011;8790;53.590;10.002;2024-01-06T01:19:30;5.50;;;3.50;;
17345;SDS011;8790;53.590;10.002;2024-01-06T01:22:01;6.20;;;3.97;;
17345;SDS011;8790;53.590;10.002;2024-01-06T01:24:33;6.70;;;4.20;;
17345;SDS011;8790;53.590;10.002;2024-01-06T01:27:04;6.83;;;4.30;;
17345;SDS011;8790;53.590;10.002;2024-01-06T01:29:36;5.63;;;3.97;;
17345;SDS011;8790;53.590;10.002;2024-01-06T01:32:08;6.13;;;3.93;;
17345;SDS011;8790;53.590;10.002;2024-01-06T01:34:40;6.77;;;4.23;;
17345;SDS011;8790;53.590;10.002;2024-01-06T01:37:11;6.70;;;4.00;;
17345;SDS011;8790;53.590;10.002;2024-01-06T01:39:43;6.23;;;3.97;;
17345;SDS011;8790;53.590;10.002;2024-01-06T01:42:14;5.50;;;4.00;;
17345;SDS011;8790;53.590;10.002;2024-01-06T01:44:45;5.93;;;4.07;;
17345;SDS011;8790;53.590;10.002;2024-01-06T01:47:18;6.27;;;4.37;;
17345;SDS011;8790;53.590;10.002;2024-01-06T01:49:52;6.83;;;3.83;;
17345;SDS011;8790;53.590;10.002;2024-01-06T01:52:23;5.97;;;4.20;;
17345;SDS011;8790;53.590;10.002;2024-01-06T01:54:55;6.13;;;4.07;;
17345;SDS011;8790;53.590;10.002;2024-01-06T01:57:27;6.03;;;4.30;;
17345;SDS011;8790;53.590;10.002;2024-01-06T01:59:59;5.67;;;4.07;;
17345;SDS011;8790;53.590;10.002;2024-01-06T02:02:32;6.07;;;3.80;;
17345;SDS011;8790;53.590;10.002;2024-01-06T02:05:04;6.43;;;4.33;;
17345;SDS011;8790;53.590;10.002;2024-01-06T02:07:35;6.73;;;4.23;;
17345;SDS011;8790;53.590;10.002;2024-01-06T02:10:07;5.77;;;4.33;;
17345;SDS011;8790;53.590;10.002;2024-01-06T02:12:39;7.13;;;4.73;;
17345;SDS011;8790;53.590;10.002;2024-01-06T02:15:10;6.07;;;4.57;;
17345;SDS011;8790;53.590;10.002;2024-01-06T02:17:43;6.43;;;4.60;;
17345;SDS011;8790;53.590;10.002;2024-01-06T02:20:14;7.37;;;4.83;;
17345;SDS011;8790;53.590;10.002;2024-01-06T02:22:51;6.27;;;4.43;;
17345;SDS011;8790;53.590;10.002;2024-01-06T02:25:22;7.00;;;4.53;;
17345;SDS011;8790;53.590;10.002;2024-01-06T02:27:54;7.43;;;4.93;;
17345;SDS011;8790;53.590;10.002;2024-01-06T02:30:25;5.93;;;4.20;;
17345;SDS011;8790;53.590;10.002;2024-01-06T02:32:56;8.13;;;4.40;;
17345;SDS011;8790;53.590;10.002;2024-01-06T02:35:28;6.47;;;4.40;;
17345;SDS011;8790;53.590;10.002;2024-01-06T02:38:01;7.17;;;4.67;;
17345;SDS011;8790;53.590;10.002;2024-01-06T02:40:32;6.60;;;4.57;;
17345;SDS011;8790;53.590;10.002;2024-01-06T02:43:04;6.77;;;4.47;;
17345;SDS011;8790;53.590;10.002;2024-01-06T02:45:35;6.63;;;4.50;;
17345;SDS011;8790;53.590;10.002;2024-01-06T02:48:07;8.17;;;5.00;;
17345;SDS011;8790;53.590;10.002;2024-01-06T02:50:38;7.00;;;4.80;;
17345;SDS011;8790;53.590;10.002;2024-01-06T02:53:11;6.60;;;4.63;;
17345;SDS011;8790;53.590;10.002;2024-01-06T02:55:42;6.87;;;4.70;;
17345;SDS011;8790;53.590;10.002;2024-01-06T02:58:14;6.97;;;4.77;;
17345;SDS011;8790;53.590;10.002;2024-01-06T03:00:45;9.07;;;4.70;;
17345;SDS011;8790;53.590;10.002;2024-01-06T03:03:17;6.17;;;4.13;;
17345;SDS011;8790;53.590;10.002;2024-01-06T03:05:48;8.73;;;5.00;;
17345;SDS011;8790;53.590;10.002;2024-01-06T03:08:21;8.23;;;4.83;;
17345;SDS011;8790;53.590;10.002;2024-01-06T03:10:53;7.73;;;5.03;;
17345;SDS011;8790;53.590;10.002;2024-01-06T03:13:24;7.07;;;5.30;;
17345;SDS011;8790;53.590;10.002;2024-01-06T03:15:56;8.53;;;4.97;;
17345;SDS011;8790;53.590;10.002;2024-01-06T03:18:27;7.13;;;5.20;;
17345;SDS011;8790;53.590;10.002;2024-01-06T03:20:59;7.13;;;4.80;;
17345;SDS011;8790;53.590;10.002;2024-01-06T03:23:31;9.37;;;5.13;;
17345;SDS011;8790;53.590;10.002;2024-01-06T03:26:05;8.37;;;5.10;;
17345;SDS011;8790;53.590;10.002;2024-01-06T03:28:37;8.83;;;5.40;;
17345;SDS011;8790;53.590;10.002;2024-01-06T03:31:08;7.63;;;5.27;;
17345;SDS011;8790;53.590;10.002;2024-01-06T03:33:39;8.27;;;5.23;;
17345;SDS011;8790;53.590;10.002;2024-01-06T03:36:12;8.47;;;5.53;;
17345;SDS011;8790;53.590;10.002;2024-01-06T03:38:45;7.87;;;5.60;;
17345;SDS011;8790;53.590;10.002;2024-01-06T03:41:16;8.73;;;5.40;;
17345;SDS011;8790;53.590;10.002;2024-01-06T03:43:48;7.70;;;4.90;;
17345;SDS011;8790;53.590;10.002;2024-01-06T03:46:19;8.50;;;5.77;;
17345;SDS011;8790;53.590;10.002;2024-01-06T03:48:51;7.47;;;5.13;;
17345;SDS011;8790;53.590;10.002;2024-01-06T03:51:22;7.77;;;4.80;;
17345;SDS011;8790;53.590;10.002;2024-01-06T03:53:55;7.17;;;5.23;;
17345;SDS011;8790;53.590;10.002;2024-01-06T03:56:26;9.10;;;5.57;;
17345;SDS011;8790;53.590;10.002;2024-01-06T03:58:57;7.40;;;5.23;;
17345;SDS011;8790;53.590;10.002;2024-01-06T04:01:29;8.53;;;5.70;;
17345;SDS011;8790;53.590;10.002;2024-01-06T04:04:04;8.30;;;5.60;;
17345;SDS011;8790;53.590;10.002;2024-01-06T04:06:36;7.77;;;5.30;;
17345;SDS011;8790;53.590;10.002;2024-01-06T04:09:09;7.77;;;5.30;;
17345;SDS011;8790;53.590;10.002;2024-01-06T04:11:40;8.20;;;5.30;;
17345;SDS011;8790;53.590;10.002;2024-01-06T04:14:12;8.93;;;5.43;;
17345;SDS011;8790;53.590;10.002;2024-01-06T04:16:43;8.13;;;5.37;;
17345;SDS011;8790;53.590;10.002;2024-01-06T04:19:15;7.07;;;5.77;;
17345;SDS011;8790;53.590;10.002;2024-01-06T04:21:46;7.70;;;5.43;;
17345;SDS011;8790;53.590;10.002;2024-01-06T04:24:19;7.97;;;5.33;;
17345;SDS011;8790;53.590;10.002;2024-01-06T04:26:51;6.93;;;4.87;;
17345;SDS011;8790;53.590;10.002;2024-01-06T04:29:22;8.07;;;5.23;;
17345;SDS011;8790;53.590;10.002;2024-01-06T04:31:54;7.63;;;5.40;;
17345;SDS011;8790;53.590;10.002;2024-01-06T04:34:25;7.57;;;5.07;;
17345;SDS011;8790;53.590;10.002;2024-01-06T04:36:56;8.53;;;4.70;;
17345;SDS011;8790;53.590;10.002;2024-01-06T04:39:29;8.50;;;5.57;;
17345;SDS011;8790;53.590;10.002;2024-01-06T04:42:01;8.67;;;5.80;;
17345;SDS011;8790;53.590;10.002;2024-01-06T04:44:32;8.07;;;5.60;;
17345;SDS011;8790;53.590;10.002;2024-01-06T04:47:04;8.33;;;6.13;;
17345;SDS011;8790;53.590;10.002;2024-01-06T04:49:36;7.80;;;5.60;;
17345;SDS011;8790;53.590;10.002;2024-01-06T04:52:07;7.67;;;5.07;;
17345;SDS011;8790;53.590;10.002;2024-01-06T04:54:40;7.07;;;5.10;;
17345;SDS011;8790;53.590;10.002;2024-01-06T04:57:11;7.97;;;5.10;;
17345;SDS011;8790;53.590;10.002;2024-01-06T04:59:43;9.43;;;5.33;;
17345;SDS011;8790;53.590;10.002;2024-01-06T05:02:14;8.43;;;5.07;;
17345;SDS011;8790;53.590;10.002;2024-01-06T05:04:46;7.80;;;5.30;;
17345;SDS011;8790;53.590;10.002;2024-01-06T05:07:17;7.53;;;5.20;;
17345;SDS011;8790;53.590;10.002;2024-01-06T05:09:50;7.73;;;5.27;;
17345;SDS011;8790;53.590;10.002;2024-01-06T05:12:21;9.17;;;5.50;;
17345;SDS011;8790;53.590;10.002;2024-01-06T05:14:53;8.50;;;5.47;;
17345;SDS011;8790;53.590;10.002;2024-01-06T05:17:24;8.50;;;5.73;;
17345;SDS011;8790;53.590;10.002;2024-01-06T05:19:55;10.37;;;5.73;;
17345;SDS011;8790;53.590;10.002;2024-01-06T05:22:27;9.30;;;5.67;;
17345;SDS011;8790;53.590;10.002;2024-01-06T05:25:00;7.97;;;5.37;;
17345;SDS011;8790;53.590;10.002;2024-01-06T05:27:31;9.87;;;5.97;;
17345;SDS011;8790;53.590;10.002;2024-01-06T05:30:03;9.27;;;5.43;;
17345;SDS011;8790;53.590;10.002;2024-01-06T05:32:36;8.37;;;5.47;;
17345;SDS011;8790;53.590;10.002;2024-01-06T05:35:08;8.70;;;5.50;;
17345;SDS011;8790;53.590;10.002;2024-01-06T05:37:40;10.80;;;5.87;;
17345;SDS011;8790;53.590;10.002;2024-01-06T05:40:12;9.10;;;6.13;;
17345;SDS011;8790;53.590;10.002;2024-01-06T05:42:44;10.03;;;6.10;;
17345;SDS011;8790;53.590;10.002;2024-01-06T05:45:16;10.17;;;6.03;;
17345;SDS011;8790;53.590;10.002;2024-01-06T05:47:47;10.40;;;6.37;;
17345;SDS011;8790;53.590;10.002;2024-01-06T05:50:18;9.87;;;5.80;;
17345;SDS011;8790;53.590;10.002;2024-01-06T05:52:50;10.30;;;6.17;;
17345;SDS011;8790;53.590;10.002;2024-01-06T05:55:23;8.73;;;5.70;;
17345;SDS011;8790;53.590;10.002;2024-01-06T05:57:54;8.33;;;6.17;;
17345;SDS011;8790;53.590;10.002;2024-01-06T06:00:26;9.33;;;5.90;;
17345;SDS011;8790;53.590;10.002;2024-01-06T06:02:57;9.47;;;6.50;;
17345;SDS011;8790;53.590;10.002;2024-01-06T06:05:29;14.53;;;6.90;;
17345;SDS011;8790;53.590;10.002;2024-01-06T06:08:00;11.10;;;6.60;;
17345;SDS011;8790;53.590;10.002;2024-01-06T06:10:33;11.80;;;6.70;;
17345;SDS011;8790;53.590;10.002;2024-01-06T06:13:21;9.87;;;6.20;;
17345;SDS011;8790;53.590;10.002;2024-01-06T06:15:53;9.97;;;6.53;;
17345;SDS011;8790;53.590;10.002;2024-01-06T06:18:24;10.33;;;6.27;;
17345;SDS011;8790;53.590;10.002;2024-01-06T06:20:56;9.53;;;6.13;;
17345;SDS011;8790;53.590;10.002;2024-01-06T06:23:27;9.63;;;6.50;;
17345;SDS011;8790;53.590;10.002;2024-01-06T06:26:01;8.83;;;5.93;;
17345;SDS011;8790;53.590;10.002;2024-01-06T06:28:35;10.57;;;6.03;;
17345;SDS011;8790;53.590;10.002;2024-01-06T06:31:07;11.03;;;6.63;;
17345;SDS011;8790;53.590;10.002;2024-01-06T06:33:38;11.13;;;6.97;;
17345;SDS011;8790;53.590;10.002;2024-01-06T06:36:10;12.33;;;7.00;;
17345;SDS011;8790;53.590;10.002;2024-01-06T06:38:41;10.03;;;6.63;;
17345;SDS011;8790;53.590;10.002;2024-01-06T06:41:14;10.93;;;7.00;;
17345;SDS011;8790;53.590;10.002;2024-01-06T06:43:46;10.60;;;6.47;;
17345;SDS011;8790;53.590;10.002;2024-01-06T06:46:17;11.70;;;7.00;;
17345;SDS011;8790;53.590;10.002;2024-01-06T06:48:48;9.70;;;6.17;;
17345;SDS011;8790;53.590;10.002;2024-01-06T06:51:20;10.30;;;7.00;;
17345;SDS011;8790;53.590;10.002;2024-01-06T06:53:54;9.97;;;6.30;;
17345;SDS011;8790;53.590;10.002;2024-01-06T06:56:28;10.90;;;6.63;;
17345;SDS011;8790;53.590;10.002;2024-01-06T06:58:59;11.23;;;7.17;;
17345;SDS011;8790;53.590;10.002;2024-01-06T07:01:32;11.77;;;7.27;;
17345;SDS011;8790;53.590;10.002;2024-01-06T07:04:04;10.17;;;6.70;;
17345;SDS011;8790;53.590;10.002;2024-01-06T07:06:35;11.03;;;6.63;;
17345;SDS011;8790;53.590;10.002;2024-01-06T07:09:06;11.13;;;7.07;;
17345;SDS011;8790;53.590;10.002;2024-01-06T07:11:38;10.67;;;6.40;;
17345;SDS011;8790;53.590;10.002;2024-01-06T07:14:10;12.20;;;6.87;;
17345;SDS011;8790;53.590;10.002;2024-01-06T07:16:41;11.23;;;6.53;;
17345;SDS011;8790;53.590;10.002;2024-01-06T07:19:12;11.33;;;7.13;;
17345;SDS011;8790;53.590;10.002;2024-01-06T07:21:44;12.47;;;7.27;;
17345;SDS011;8790;53.590;10.002;2024-01-06T07:24:15;11.70;;;6.97;;
17345;SDS011;8790;53.590;10.002;2024-01-06T07:26:49;9.37;;;6.47;;
17345;SDS011;8790;53.590;10.002;2024-01-06T07:29:20;11.60;;;7.00;;
17345;SDS011;8790;53.590;10.002;2024-01-06T07:31:52;9.80;;;6.57;;
17345;SDS011;8790;53.590;10.002;2024-01-06T07:34:23;9.97;;;6.57;;
17345;SDS011;8790;53.590;10.002;2024-01-06T07:36:55;11.17;;;7.20;;
17345;SDS011;8790;53.590;10.002;2024-01-06T07:39:26;11.13;;;6.67;;
17345;SDS011;8790;53.590;10.002;2024-01-06T07:41:59;10.27;;;6.33;;
17345;SDS011;8790;53.590;10.002;2024-01-06T07:44:30;12.30;;;7.37;;
17345;SDS011;8790;53.590;10.002;2024-01-06T07:47:02;11.10;;;6.83;;
17345;SDS011;8790;53.590;10.002;2024-01-06T07:49:35;9.53;;;6.23;;
17345;SDS011;8790;53.590;10.002;2024-01-06T07:52:06;10.60;;;6.77;;
17345;SDS011;8790;53.590;10.002;2024-01-06T07:54:38;11.43;;;7.20;;
17345;SDS011;8790;53.590;10.002;2024-01-06T07:57:10;10.40;;;6.30;;
17345;SDS011;8790;53.590;10.002;2024-01-06T07:59:44;10.07;;;6.60;;
17345;SDS011;8790;53.590;10.002;2024-01-06T08:02:16;9.23;;;6.03;;
17345;SDS011;8790;53.590;10.002;2024-01-06T08:04:48;11.17;;;6.77;;
17345;SDS011;8790;53.590;10.002;2024-01-06T08:07:20;10.87;;;6.43;;
17345;SDS011;8790;53.590;10.002;2024-01-06T08:09:51;9.23;;;6.43;;
17345;SDS011;8790;53.590;10.002;2024-01-06T08:12:24;9.70;;;6.00;;
17345;SDS011;8790;53.590;10.002;2024-01-06T08:14:55;10.77;;;6.40;;
17345;SDS011;8790;53.590;10.002;2024-01-06T08:17:27;9.03;;;5.87;;
17345;SDS011;8790;53.590;10.002;2024-01-06T08:19:58;9.23;;;6.47;;
17345;SDS011;8790;53.590;10.002;2024-01-06T08:22:29;10.10;;;6.10;;
17345;SDS011;8790;53.590;10.002;2024-01-06T08:25:01;9.33;;;5.83;;
17345;SDS011;8790;53.590;10.002;2024-01-06T08:27:34;9.73;;;5.77;;
17345;SDS011;8790;53.590;10.002;2024-01-06T08:30:06;9.77;;;6.33;;
17345;SDS011;8790;53.590;10.002;2024-01-06T08:32:39;10.27;;;6.60;;
17345;SDS011;8790;53.590;10.002;2024-01-06T08:35:11;10.00;;;6.03;;
17345;SDS011;8790;53.590;10.002;2024-01-06T08:37:43;11.10;;;6.20;;
17345;SDS011;8790;53.590;10.002;2024-01-06T08:40:15;10.40;;;6.10;;
17345;SDS011;8790;53.590;10.002;2024-01-06T08:42:47;9.87;;;5.73;;
17345;SDS011;8790;53.590;10.002;2024-01-06T08:45:19;10.53;;;6.30;;
17345;SDS011;8790;53.590;10.002;2024-01-06T08:47:51;9.50;;;6.00;;
17345;SDS011;8790;53.590;10.002;2024-01-06T08:50:22;9.97;;;6.23;;
17345;SDS011;8790;53.590;10.002;2024-01-06T08:52:54;10.73;;;6.47;;
17345;SDS011;8790;53.590;10.002;2024-01-06T08:55:25;9.33;;;5.83;;
17345;SDS011;8790;53.590;10.002;2024-01-06T08:57:58;9.87;;;5.83;;
17345;SDS011;8790;53.590;10.002;2024-01-06T09:00:29;10.87;;;6.40;;
17345;SDS011;8790;53.590;10.002;2024-01-06T09:03:01;10.10;;;6.03;;
17345;SDS011;8790;53.590;10.002;2024-01-06T09:05:32;11.93;;;5.80;;
17345;SDS011;8790;53.590;10.002;2024-01-06T09:08:04;8.93;;;5.77;;
17345;SDS011;8790;53.590;10.002;2024-01-06T09:10:37;9.53;;;6.30;;
17345;SDS011;8790;53.590;10.002;2024-01-06T09:13:09;9.10;;;5.77;;
17345;SDS011;8790;53.590;10.002;2024-01-06T09:15:41;9.63;;;6.27;;
17345;SDS011;8790;53.590;10.002;2024-01-06T09:18:13;10.27;;;6.20;;
17345;SDS011;8790;53.590;10.002;2024-01-06T09:20:44;8.90;;;5.87;;
17345;SDS011;8790;53.590;10.002;2024-01-06T09:23:17;10.13;;;5.90;;
17345;SDS011;8790;53.590;10.002;2024-01-06T09:25:49;9.70;;;5.70;;
17345;SDS011;8790;53.590;10.002;2024-01-06T09:28:23;11.03;;;6.30;;
17345;SDS011;8790;53.590;10.002;2024-01-06T09:30:54;9.67;;;6.10;;
17345;SDS011;8790;53.590;10.002;2024-01-06T09:33:26;11.33;;;6.50;;
17345;SDS011;8790;53.590;10.002;2024-01-06T09:35:57;9.63;;;6.00;;
17345;SDS011;8790;53.590;10.002;2024-01-06T09:38:29;12.40;;;6.60;;
17345;SDS011;8790;53.590;10.002;2024-01-06T09:41:00;11.27;;;6.00;;
17345;SDS011;8790;53.590;10.002;2024-01-06T09:43:33;8.97;;;6.00;;
17345;SDS011;8790;53.590;10.002;2024-01-06T09:46:06;9.77;;;6.23;;
17345;SDS011;8790;53.590;10.002;2024-01-06T09:48:39;10.43;;;6.50;;
17345;SDS011;8790;53.590;10.002;2024-01-06T09:51:11;10.57;;;6.43;;
17345;SDS011;8790;53.590;10.002;2024-01-06T09:53:47;10.47;;;6.53;;
17345;SDS011;8790;53.590;10.002;2024-01-06T09:56:19;8.87;;;6.27;;
17345;SDS011;8790;53.590;10.002;2024-01-06T09:58:53;10.17;;;6.03;;
17345;SDS011;8790;53.590;10.002;2024-01-06T10:01:24;10.97;;;7.30;;
17345;SDS011;8790;53.590;10.002;2024-01-06T10:03:56;9.70;;;6.17;;
17345;SDS011;8790;53.590;10.002;2024-01-06T10:06:27;11.00;;;6.70;;
17345;SDS011;8790;53.590;10.002;2024-01-06T10:08:59;10.73;;;6.80;;
17345;SDS011;8790;53.590;10.002;2024-01-06T10:11:30;11.27;;;5.77;;
17345;SDS011;8790;53.590;10.002;2024-01-06T10:14:03;10.40;;;6.13;;
17345;SDS011;8790;53.590;10.002;2024-01-06T10:16:35;12.20;;;6.77;;
17345;SDS011;8790;53.590;10.002;2024-01-06T10:19:06;9.67;;;6.30;;
17345;SDS011;8790;53.590;10.002;2024-01-06T10:21:38;11.30;;;6.57;;
17345;SDS011;8790;53.590;10.002;2024-01-06T10:24:10;12.23;;;6.60;;
17345;SDS011;8790;53.590;10.002;2024-01-06T10:26:41;9.70;;;6.40;;
17345;SDS011;8790;53.590;10.002;2024-01-06T10:29:15;9.17;;;5.70;;
17345;SDS011;8790;53.590;10.002;2024-01-06T10:31:46;9.43;;;6.03;;
17345;SDS011;8790;53.590;10.002;2024-01-06T10:34:19;8.87;;;5.97;;
17345;SDS011;8790;53.590;10.002;2024-01-06T10:36:50;10.73;;;6.83;;
17345;SDS011;8790;53.590;10.002;2024-01-06T10:39:22;9.77;;;6.37;;
17345;SDS011;8790;53.590;10.002;2024-01-06T10:41:54;9.20;;;5.70;;
17345;SDS011;8790;53.590;10.002;2024-01-06T10:44:27;9.70;;;6.23;;
17345;SDS011;8790;53.590;10.002;2024-01-06T10:46:59;8.90;;;6.07;;
17345;SDS011;8790;53.590;10.002;2024-01-06T10:49:32;8.30;;;5.90;;
17345;SDS011;8790;53.590;10.002;2024-01-06T10:52:04;9.17;;;5.70;;
17345;SDS011;8790;53.590;10.002;2024-01-06T10:54:36;10.50;;;5.60;;
17345;SDS011;8790;53.590;10.002;2024-01-06T10:57:07;9.30;;;5.50;;
17345;SDS011;8790;53.590;10.002;2024-01-06T10:59:41;10.03;;;6.00;;
17345;SDS011;8790;53.590;10.002;2024-01-06T11:02:12;9.13;;;5.60;;
17345;SDS011;8790;53.590;10.002;2024-01-06T11:04:46;10.70;;;7.65;;
17345;SDS011;8790;53.590;10.002;2024-01-06T11:07:19;8.23;;;6.30;;
17345;SDS011;8790;53.590;10.002;2024-01-06T11:09:53;11.40;;;5.83;;
17345;SDS011;8790;53.590;10.002;2024-01-06T11:12:27;10.63;;;5.90;;
17345;SDS011;8790;53.590;10.002;2024-01-06T11:15:00;7.83;;;5.63;;
17345;SDS011;8790;53.590;10.002;2024-01-06T11:17:49;9.60;;;5.47;;
17345;SDS011;8790;53.590;10.002;2024-01-06T11:20:23;9.40;;;4.83;;
17345;SDS011;8790;53.590;10.002;2024-01-06T11:22:54;8.73;;;5.50;;
17345;SDS011;8790;53.590;10.002;2024-01-06T11:25:49;8.87;;;5.70;;
17345;SDS011;8790;53.590;10.002;2024-01-06T11:28:20;9.13;;;5.90;;
17345;SDS011;8790;53.590;10.002;2024-01-06T11:31:05;7.57;;;5.43;;
17345;SDS011;8790;53.590;10.002;2024-01-06T11:33:42;10.07;;;7.40;;
17345;SDS011;8790;53.590;10.002;2024-01-06T11:36:14;8.47;;;5.80;;
17345;SDS011;8790;53.590;10.002;2024-01-06T11:38:46;7.93;;;5.40;;
17345;SDS011;8790;53.590;10.002;2024-01-06T11:44:18;9.60;;;5.23;;
17345;SDS011;8790;53.590;10.002;2024-01-06T11:46:53;9.50;;;5.53;;
17345;SDS011;8790;53.590;10.002;2024-01-06T11:49:26;8.97;;;5.13;;
17345;SDS011;8790;53.590;10.002;2024-01-06T11:51:59;7.60;;;5.03;;
17345;SDS011;8790;53.590;10.002;2024-01-06T11:54:33;8.63;;;5.10;;
17345;SDS011;8790;53.590;10.002;2024-01-06T11:57:06;7.53;;;4.70;;
17345;SDS011;8790;53.590;10.002;2024-01-06T11:59:37;9.47;;;4.50;;
17345;SDS011;8790;53.590;10.002;2024-01-06T12:02:14;7.13;;;4.60;;
17345;SDS011;8790;53.590;10.002;2024-01-06T12:04:47;7.10;;;4.53;;
17345;SDS011;8790;53.590;10.002;2024-01-06T12:07:19;8.23;;;4.83;;
17345;SDS011;8790;53.590;10.002;2024-01-06T12:10:00;6.73;;;4.47;;
17345;SDS011;8790;53.590;10.002;2024-01-06T12:12:32;8.57;;;4.80;;
17345;SDS011;8790;53.590;10.002;2024-01-06T12:15:03;6.30;;;4.00;;
17345;SDS011;8790;53.590;10.002;2024-01-06T12:17:38;6.90;;;4.30;;
17345;SDS011;8790;53.590;10.002;2024-01-06T12:20:11;7.37;;;4.37;;
17345;SDS011;8790;53.590;10.002;2024-01-06T12:22:43;7.30;;;4.60;;
17345;SDS011;8790;53.590;10.002;2024-01-06T12:25:14;6.97;;;4.60;;
17345;SDS011;8790;53.590;10.002;2024-01-06T12:27:47;7.00;;;3.87;;
17345;SDS011;8790;53.590;10.002;2024-01-06T12:30:21;6.10;;;3.73;;
17345;SDS011;8790;53.590;10.002;2024-01-06T12:32:55;5.40;;;3.73;;
17345;SDS011;8790;53.590;10.002;2024-01-06T12:35:26;7.63;;;4.03;;
17345;SDS011;8790;53.590;10.002;2024-01-06T12:37:57;6.07;;;4.13;;
17345;SDS011;8790;53.590;10.002;2024-01-06T12:40:29;5.93;;;3.90;;
17345;SDS011;8790;53.590;10.002;2024-01-06T12:43:00;7.50;;;4.03;;
17345;SDS011;8790;53.590;10.002;2024-01-06T12:45:32;5.47;;;3.90;;
17345;SDS011;8790;53.590;10.002;2024-01-06T12:48:05;6.10;;;3.90;;
17345;SDS011;8790;53.590;10.002;2024-01-06T12:50:37;5.67;;;3.87;;
17345;SDS011;8790;53.590;10.002;2024-01-06T12:53:09;5.57;;;3.60;;
17345;SDS011;8790;53.590;10.002;2024-01-06T12:55:42;6.43;;;3.73;;
17345;SDS011;8790;53.590;10.002;2024-01-06T12:58:13;4.60;;;3.23;;
17345;SDS011;8790;53.590;10.002;2024-01-06T13:00:45;4.60;;;3.30;;
17345;SDS011;8790;53.590;10.002;2024-01-06T13:03:17;5.73;;;3.77;;
17345;SDS011;8790;53.590;10.002;2024-01-06T13:05:49;4.60;;;3.40;;
17345;SDS011;8790;53.590;10.002;2024-01-06T13:08:20;5.53;;;3.27;;
17345;SDS011;8790;53.590;10.002;2024-01-06T13:10:52;5.03;;;3.47;;
17345;SDS011;8790;53.590;10.002;2024-01-06T13:13:23;5.33;;;3.40;;
17345;SDS011;8790;53.590;10.002;2024-01-06T13:15:55;4.67;;;3.53;;
17345;SDS011;8790;53.590;10.002;2024-01-06T13:18:27;5.20;;;3.57;;
17345;SDS011;8790;53.590;10.002;2024-01-06T13:21:00;6.47;;;3.60;;
17345;SDS011;8790;53.590;10.002;2024-01-06T13:23:31;5.53;;;3.70;;
17345;SDS011;8790;53.590;10.002;2024-01-06T13:26:03;6.00;;;3.50;;
17345;SDS011;8790;53.590;10.002;2024-01-06T13:28:34;5.50;;;3.57;;
17345;SDS011;8790;53.590;10.002;2024-01-06T13:31:06;5.67;;;3.50;;
17345;SDS011;8790;53.590;10.002;2024-01-06T13:33:39;5.60;;;3.90;;
17345;SDS011;8790;53.590;10.002;2024-01-06T13:36:11;6.53;;;3.37;;
17345;SDS011;8790;53.590;10.002;2024-01-06T13:38:43;6.30;;;3.80;;
17345;SDS011;8790;53.590;10.002;2024-01-06T13:41:15;5.27;;;3.73;;
17345;SDS011;8790;53.590;10.002;2024-01-06T13:43:47;5.93;;;3.53;;
17345;SDS011;8790;53.590;10.002;2024-01-06T13:46:18;4.50;;;3.33;;
17345;SDS011;8790;53.590;10.002;2024-01-06T13:48:51;5.00;;;3.33;;
17345;SDS011;8790;53.590;10.002;2024-01-06T13:51:23;5.53;;;3.93;;
17345;SDS011;8790;53.590;10.002;2024-01-06T13:53:54;5.07;;;3.57;;
17345;SDS011;8790;53.590;10.002;2024-01-06T13:56:26;5.23;;;3.40;;
17345;SDS011;8790;53.590;10.002;2024-01-06T13:58:57;5.83;;;3.43;;
17345;SDS011;8790;53.590;10.002;2024-01-06T14:01:29;5.80;;;3.20;;
17345;SDS011;8790;53.590;10.002;2024-01-06T14:04:02;4.53;;;3.43;;
17345;SDS011;8790;53.590;10.002;2024-01-06T14:06:35;4.67;;;3.00;;
17345;SDS011;8790;53.590;10.002;2024-01-06T14:09:09;5.47;;;3.27;;
17345;SDS011;8790;53.590;10.002;2024-01-06T14:11:42;3.67;;;2.90;;
17345;SDS011;8790;53.590;10.002;2024-01-06T14:14:13;4.63;;;3.20;;
17345;SDS011;8790;53.590;10.002;2024-01-06T14:16:44;3.93;;;2.77;;
17345;SDS011;8790;53.590;10.002;2024-01-06T14:19:18;5.13;;;3.23;;
17345;SDS011;8790;53.590;10.002;2024-01-06T14:21:49;5.73;;;3.40;;
17345;SDS011;8790;53.590;10.002;2024-01-06T14:24:21;5.17;;;3.43;;
17345;SDS011;8790;53.590;10.002;2024-01-06T14:26:54;5.03;;;3.20;;
17345;SDS011;8790;53.590;10.002;2024-01-06T14:29:26;4.37;;;3.30;;
17345;SDS011;8790;53.590;10.002;2024-01-06T14:31:57;4.57;;;3.10;;
17345;SDS011;8790;53.590;10.002;2024-01-06T14:34:30;5.53;;;3.40;;
17345;SDS011;8790;53.590;10.002;2024-01-06T14:37:01;4.53;;;3.23;;
17345;SDS011;8790;53.590;10.002;2024-01-06T14:39:33;4.57;;;3.20;;
17345;SDS011;8790;53.590;10.002;2024-01-06T14:42:06;6.77;;;3.80;;
17345;SDS011;8790;53.590;10.002;2024-01-06T14:44:38;5.30;;;3.50;;
17345;SDS011;8790;53.590;10.002;2024-01-06T14:47:09;5.57;;;3.33;;
17345;SDS011;8790;53.590;10.002;2024-01-06T14:49:44;5.60;;;3.77;;
17345;SDS011;8790;53.590;10.002;2024-01-06T14:52:15;6.23;;;3.87;;
17345;SDS011;8790;53.590;10.002;2024-01-06T14:54:46;4.47;;;3.33;;
17345;SDS011;8790;53.590;10.002;2024-01-06T14:57:19;5.63;;;3.97;;
17345;SDS011;8790;53.590;10.002;2024-01-06T14:59:50;6.00;;;3.70;;
17345;SDS011;8790;53.590;10.002;2024-01-06T15:02:22;5.17;;;3.67;;
17345;SDS011;8790;53.590;10.002;2024-01-06T15:04:54;5.33;;;3.67;;
17345;SDS011;8790;53.590;10.002;2024-01-06T15:07:26;5.97;;;4.30;;
17345;SDS011;8790;53.590;10.002;2024-01-06T15:09:57;6.30;;;4.13;;
17345;SDS011;8790;53.590;10.002;2024-01-06T15:12:29;5.53;;;3.77;;
17345;SDS011;8790;53.590;10.002;2024-01-06T15:15:00;5.30;;;3.87;;
17345;SDS011;8790;53.590;10.002;2024-01-06T15:17:32;6.80;;;3.97;;